createdAt,value
2022-09-28T00:02:27.953Z,8.75
2022-09-28T00:04:55.547Z,8.77
2022-09-28T00:07:23.242Z,8.82
2022-09-28T00:09:50.673Z,8.76
2022-09-28T00:12:18.386Z,8.78
2022-09-28T00:14:47.193Z,8.76
2022-09-28T00:17:16.724Z,8.69
2022-09-28T00:19:45.063Z,8.82
2022-09-28T00:22:12.462Z,8.79
2022-09-28T00:24:39.966Z,8.73
2022-09-28T00:27:07.538Z,8.74
2022-09-28T00:29:36.410Z,8.87
2022-09-28T00:32:06.983Z,8.74
2022-09-28T00:34:36.944Z,8.73
2022-09-28T00:37:05.887Z,8.88
2022-09-28T00:39:34.272Z,8.87
2022-09-28T00:42:01.674Z,8.76
2022-09-28T00:44:36.728Z,8.87
2022-09-28T00:47:10.858Z,8.83
2022-09-28T00:49:42.748Z,8.86
2022-09-28T00:52:11.961Z,8.86
2022-09-28T00:54:39.473Z,8.81
2022-09-28T00:57:06.880Z,8.89
2022-09-28T00:59:34.586Z,8.87
2022-09-28T01:02:02.580Z,8.84
2022-09-28T01:04:32.015Z,8.82
2022-09-28T01:07:00.039Z,8.80
2022-09-28T01:09:28.768Z,9.05
2022-09-28T01:11:56.207Z,8.94
2022-09-28T01:14:25.681Z,8.84
2022-09-28T01:16:58.799Z,8.84
2022-09-28T01:19:41.888Z,8.83
2022-09-28T01:22:24.059Z,8.82
2022-09-28T01:24:57.377Z,8.80
2022-09-28T01:27:29.167Z,8.80
2022-09-28T01:30:03.508Z,8.78
2022-09-28T01:32:37.559Z,8.88
2022-09-28T01:35:08.870Z,8.87
2022-09-28T01:37:41.041Z,8.83
2022-09-28T01:40:10.017Z,8.96
2022-09-28T01:42:40.185Z,8.96
2022-09-28T01:45:12.496Z,9.00
2022-09-28T01:47:41.644Z,9.27
2022-09-28T01:50:11.951Z,9.14
2022-09-28T01:52:45.049Z,9.04
2022-09-28T01:55:15.079Z,9.00
2022-09-28T01:57:48.206Z,8.96
2022-09-28T02:00:17.101Z,8.96
2022-09-28T02:02:49.322Z,8.99
2022-09-28T02:05:19.405Z,9.02
2022-09-28T02:07:49.785Z,9.04
2022-09-28T02:10:20.374Z,9.08
2022-09-28T02:12:51.929Z,9.13
2022-09-28T02:15:22.009Z,9.03
2022-09-28T02:17:50.013Z,9.09
2022-09-28T02:20:18.393Z,9.20
2022-09-28T02:22:48.852Z,9.23
2022-09-28T02:25:22.537Z,9.32
2022-09-28T02:27:55.047Z,9.23
2022-09-28T02:30:22.712Z,9.35
2022-09-28T02:32:53.454Z,9.18
2022-09-28T02:35:21.182Z,9.15
2022-09-28T02:37:49.503Z,9.15
2022-09-28T02:40:18.431Z,9.20
2022-09-28T02:42:55.164Z,9.12
2022-09-28T02:45:40.657Z,9.09
2022-09-28T02:48:21.274Z,9.12
2022-09-28T02:51:01.128Z,8.93
2022-09-28T02:53:57.467Z,8.93
2022-09-28T02:56:39.773Z,8.81
2022-09-28T02:59:14.610Z,8.85
2022-09-28T03:01:48.017Z,8.80
2022-09-28T03:04:21.632Z,8.76
2022-09-28T03:06:54.400Z,8.62
2022-09-28T03:09:26.547Z,8.61
2022-09-28T03:11:55.123Z,8.70
2022-09-28T03:14:24.092Z,8.66
2022-09-28T03:16:51.570Z,8.67
2022-09-28T03:19:22.241Z,8.70
2022-09-28T03:21:49.871Z,8.77
2022-09-28T03:24:17.402Z,8.73
2022-09-28T03:26:44.846Z,8.72
2022-09-28T03:29:12.280Z,8.77
2022-09-28T03:31:41.074Z,8.69
2022-09-28T03:34:08.661Z,8.65
2022-09-28T03:36:36.174Z,8.63
2022-09-28T03:39:04.315Z,8.67
2022-09-28T03:41:31.749Z,8.65
2022-09-28T03:43:59.154Z,8.67
2022-09-28T03:46:27.322Z,8.57
2022-09-28T03:48:57.515Z,8.66
2022-09-28T03:51:24.928Z,8.58
2022-09-28T03:53:52.330Z,8.46
2022-09-28T03:56:20.297Z,8.67
2022-09-28T03:58:47.862Z,8.59
2022-09-28T04:01:17.843Z,8.49
2022-09-28T04:03:46.254Z,8.39
2022-09-28T04:06:15.581Z,8.45
2022-09-28T04:08:43.977Z,8.38
2022-09-28T04:11:11.421Z,8.54
2022-09-28T04:13:38.954Z,8.45
2022-09-28T04:16:06.910Z,8.47
2022-09-28T04:18:35.241Z,8.47
2022-09-28T04:21:06.492Z,8.46
2022-09-28T04:23:36.069Z,8.38
2022-09-28T04:26:03.615Z,8.24
2022-09-28T04:28:56.962Z,8.24
2022-09-28T04:31:24.894Z,8.40
2022-09-28T04:33:53.562Z,8.31
2022-09-28T04:36:21.152Z,8.32
2022-09-28T04:38:53.204Z,8.43
2022-09-28T04:41:22.354Z,8.36
2022-09-28T04:43:50.381Z,8.65
2022-09-28T04:46:18.167Z,8.66
2022-09-28T04:48:45.907Z,8.69
2022-09-28T04:51:13.355Z,8.87
2022-09-28T04:53:40.825Z,8.74
2022-09-28T04:56:12.144Z,8.64
2022-09-28T04:58:39.665Z,8.52
2022-09-28T05:01:09.384Z,8.37
2022-09-28T05:03:37.832Z,8.60
2022-09-28T05:06:06.834Z,8.48
2022-09-28T05:08:35.187Z,8.68
2022-09-28T05:11:04.632Z,8.57
2022-09-28T05:13:35.646Z,8.42
2022-09-28T05:16:05.616Z,8.32
2022-09-28T05:19:12.656Z,8.41
2022-09-28T05:21:40.850Z,8.49
2022-09-28T05:24:08.725Z,8.48
2022-09-28T05:26:36.266Z,8.47
2022-09-28T05:29:05.147Z,8.43
2022-09-28T05:31:33.085Z,8.32
2022-09-28T05:34:00.690Z,8.44
2022-09-28T05:36:28.528Z,8.49
2022-09-28T05:38:55.982Z,8.39
2022-09-28T05:41:23.985Z,8.28
2022-09-28T05:43:52.221Z,8.47
2022-09-28T05:46:21.763Z,8.38
2022-09-28T05:48:49.648Z,8.33
2022-09-28T05:51:17.069Z,8.22
2022-09-28T05:53:45.610Z,8.12
2022-09-28T05:56:13.380Z,8.21
2022-09-28T05:58:40.796Z,8.10
2022-09-28T06:01:08.270Z,8.27
2022-09-28T06:03:37.040Z,8.41
2022-09-28T06:06:04.515Z,8.47
2022-09-28T06:08:32.151Z,8.53
2022-09-28T06:11:00.445Z,8.38
2022-09-28T06:13:28.213Z,8.39
2022-09-28T06:15:55.699Z,8.48
2022-09-28T06:18:23.195Z,8.33
2022-09-28T06:20:52.088Z,8.43
2022-09-28T06:23:19.557Z,8.47
2022-09-28T06:25:46.974Z,8.51
2022-09-28T06:28:15.520Z,8.66
2022-09-28T06:30:44.046Z,8.66
2022-09-28T06:33:13.483Z,8.72
2022-09-28T06:35:40.951Z,8.68
2022-09-28T06:38:10.293Z,8.74
2022-09-28T06:40:38.117Z,8.81
2022-09-28T06:43:10.483Z,8.92
2022-09-28T06:45:38.752Z,8.98
2022-09-28T06:48:07.045Z,9.04
2022-09-28T06:50:37.303Z,9.13
2022-09-28T06:53:05.852Z,9.15
2022-09-28T06:55:34.655Z,9.06
2022-09-28T06:58:03.696Z,9.07
2022-09-28T07:00:33.913Z,9.16
2022-09-28T07:03:01.955Z,9.23
2022-09-28T07:05:29.951Z,9.17
2022-09-28T07:07:58.312Z,9.16
2022-09-28T07:10:27.697Z,9.18
2022-09-28T07:12:57.485Z,9.28
2022-09-28T07:15:26.009Z,9.31
2022-09-28T07:18:02.658Z,9.32
2022-09-28T07:20:31.947Z,9.35
2022-09-28T07:23:14.085Z,9.37
2022-09-28T07:25:47.640Z,9.47
2022-09-28T07:28:17.135Z,9.50
2022-09-28T07:30:45.377Z,9.55
2022-09-28T07:33:14.331Z,9.76
2022-09-28T07:35:42.895Z,9.72
2022-09-28T07:38:11.661Z,9.84
2022-09-28T07:41:01.993Z,9.75
2022-09-28T07:43:30.801Z,9.87
2022-09-28T07:45:58.884Z,9.85
2022-09-28T07:48:26.484Z,9.82
2022-09-28T07:50:56.548Z,9.98
2022-09-28T07:53:25.753Z,9.92
2022-09-28T07:55:53.693Z,9.89
2022-09-28T07:58:21.267Z,9.94
2022-09-28T08:00:51.068Z,9.89
2022-09-28T08:03:19.872Z,9.88
2022-09-28T08:05:48.007Z,9.92
2022-09-28T08:08:15.770Z,9.86
2022-09-28T08:10:46.569Z,9.82
2022-09-28T08:13:16.249Z,9.77
2022-09-28T08:15:43.700Z,9.65
2022-09-28T08:18:12.608Z,9.74
2022-09-28T08:20:57.668Z,9.77
2022-09-28T08:23:25.939Z,9.98
2022-09-28T08:25:53.965Z,9.91
2022-09-28T08:28:22.590Z,10.10
2022-09-28T08:30:50.382Z,10.01
2022-09-28T08:33:21.377Z,10.07
2022-09-28T08:35:49.351Z,10.20
2022-09-28T08:38:17.614Z,10.26
2022-09-28T08:40:51.373Z,10.24
2022-09-28T08:43:29.686Z,10.33
2022-09-28T08:45:58.056Z,10.34
2022-09-28T08:48:56.181Z,10.35
2022-09-28T08:51:31.960Z,10.43
2022-09-28T08:54:05.748Z,10.37
2022-09-28T08:56:40.320Z,10.42
2022-09-28T08:59:13.092Z,10.68
2022-09-28T09:01:45.768Z,10.76
2022-09-28T09:04:15.053Z,10.75
2022-09-28T09:07:01.806Z,10.67
2022-09-28T09:09:41.032Z,10.71
2022-09-28T09:12:11.837Z,10.63
2022-09-28T09:15:03.856Z,10.75
2022-09-28T09:17:41.732Z,11.00
2022-09-28T09:20:19.221Z,11.19
2022-09-28T09:22:56.660Z,11.40
2022-09-28T09:25:28.244Z,11.22
2022-09-28T09:28:09.738Z,11.24
2022-09-28T09:30:43.665Z,11.17
2022-09-28T09:33:34.593Z,11.24
2022-09-28T09:36:13.493Z,11.18
2022-09-28T09:38:48.673Z,11.36
2022-09-28T09:41:23.027Z,11.51
2022-09-28T09:44:20.333Z,11.79
2022-09-28T09:46:51.088Z,11.95
2022-09-28T09:49:21.517Z,12.07
2022-09-28T09:51:54.455Z,12.21
2022-09-28T09:54:24.756Z,12.26
2022-09-28T09:56:57.160Z,12.02
2022-09-28T09:59:28.425Z,11.69
2022-09-28T10:01:56.549Z,11.50
2022-09-28T10:04:26.043Z,11.41
2022-09-28T10:07:01.773Z,11.46
2022-09-28T10:09:32.226Z,11.44
2022-09-28T10:11:59.651Z,11.32
2022-09-28T10:14:27.224Z,11.47
2022-09-28T10:16:56.991Z,11.28
2022-09-28T10:19:30.199Z,11.38
2022-09-28T10:22:01.806Z,11.40
2022-09-28T10:24:32.661Z,11.58
2022-09-28T10:27:05.492Z,11.60
2022-09-28T10:29:41.168Z,11.43
2022-09-28T10:32:19.890Z,11.57
2022-09-28T10:34:50.299Z,11.74
2022-09-28T10:37:20.201Z,11.78
2022-09-28T10:39:51.083Z,11.94
2022-09-28T10:42:20.681Z,12.08
2022-09-28T10:44:54.015Z,12.32
2022-09-28T10:47:23.565Z,12.33
2022-09-28T10:49:52.187Z,12.39
2022-09-28T10:52:39.659Z,12.48
2022-09-28T10:55:30.497Z,12.44
2022-09-28T10:57:57.949Z,12.34
2022-09-28T11:00:34.666Z,12.35
2022-09-28T11:03:02.802Z,12.20
2022-09-28T11:05:30.426Z,12.28
2022-09-28T11:08:00.789Z,12.32
2022-09-28T11:10:30.046Z,12.52
2022-09-28T11:12:58.263Z,12.60
2022-09-28T11:15:27.147Z,12.67
2022-09-28T11:17:54.622Z,12.92
2022-09-28T11:20:32.894Z,13.11
2022-09-28T11:23:15.718Z,13.20
2022-09-28T11:25:43.448Z,13.30
2022-09-28T11:28:23.341Z,13.32
2022-09-28T11:30:52.244Z,13.41
2022-09-28T11:33:21.406Z,13.45
2022-09-28T11:35:53.229Z,13.33
2022-09-28T11:38:33.489Z,13.09
2022-09-28T11:41:18.734Z,13.04
2022-09-28T11:44:27.044Z,13.36
2022-09-28T11:47:04.698Z,13.34
2022-09-28T11:49:35.733Z,13.39
2022-09-28T11:52:08.005Z,13.38
2022-09-28T11:54:42.082Z,13.07
2022-09-28T11:57:15.383Z,12.92
2022-09-28T11:59:50.131Z,13.09
2022-09-28T12:02:21.951Z,13.02
2022-09-28T12:04:53.625Z,12.90
2022-09-28T12:07:25.660Z,13.00
2022-09-28T12:09:56.421Z,12.87
2022-09-28T12:12:26.352Z,12.92
2022-09-28T12:14:54.433Z,12.80
2022-09-28T12:17:24.716Z,12.80
2022-09-28T12:19:55.557Z,13.16
2022-09-28T12:22:26.625Z,13.21
2022-09-28T12:24:57.591Z,13.17
2022-09-28T12:27:28.883Z,13.33
2022-09-28T12:29:59.444Z,13.45
2022-09-28T12:32:32.207Z,13.58
2022-09-28T12:34:59.691Z,13.45
2022-09-28T12:37:36.714Z,13.45
2022-09-28T12:40:22.549Z,13.46
2022-09-28T12:43:04.272Z,13.54
2022-09-28T12:46:09.767Z,13.32
2022-09-28T12:49:47.191Z,13.46
2022-09-28T12:51:49.076Z,13.26
2022-09-28T12:54:30.452Z,13.17
2022-09-28T12:57:08.720Z,13.05
2022-09-28T12:59:39.066Z,13.24
2022-09-28T13:02:24.021Z,13.08
2022-09-28T13:05:03.252Z,12.95
2022-09-28T13:07:37.073Z,13.08
2022-09-28T13:10:13.924Z,13.20
2022-09-28T13:12:52.541Z,13.22
2022-09-28T13:15:40.662Z,13.22
2022-09-28T13:18:13.636Z,13.62
2022-09-28T13:20:54.128Z,13.47
2022-09-28T13:23:23.582Z,13.27
2022-09-28T13:25:55.583Z,13.37
2022-09-28T13:28:27.214Z,13.42
2022-09-28T13:33:31.498Z,13.50
2022-09-28T13:35:58.968Z,13.62
2022-09-28T13:38:54.388Z,13.58
2022-09-28T13:41:29.131Z,13.50
2022-09-28T13:44:27.557Z,13.43
2022-09-28T13:47:10.137Z,13.42
2022-09-28T13:49:45.453Z,13.40
2022-09-28T13:52:29.325Z,13.37
2022-09-28T13:55:09.043Z,13.40
2022-09-28T13:57:43.003Z,13.39
2022-09-28T14:00:18.473Z,13.43
2022-09-28T14:02:48.658Z,13.47
2022-09-28T14:05:46.047Z,13.64
2022-09-28T14:08:33.582Z,13.78
2022-09-28T14:11:40.147Z,13.80
2022-09-28T14:14:26.248Z,13.66
2022-09-28T14:17:16.234Z,13.64
2022-09-28T14:19:43.936Z,13.70
2022-09-28T14:22:19.247Z,13.70
2022-09-28T14:25:04.273Z,13.66
2022-09-28T14:28:01.194Z,13.77
2022-09-28T14:30:45.245Z,13.68
2022-09-28T14:33:23.418Z,13.83
2022-09-28T14:35:55.508Z,14.01
2022-09-28T14:38:42.002Z,13.96
2022-09-28T14:41:17.583Z,13.79
2022-09-28T14:44:09.117Z,13.62
2022-09-28T14:46:38.740Z,13.57
2022-09-28T14:49:47.547Z,13.47
2022-09-28T14:52:19.835Z,13.27
2022-09-28T14:54:53.698Z,13.00
2022-09-28T14:57:23.972Z,12.99
2022-09-28T14:59:51.599Z,12.73
2022-09-28T15:02:25.375Z,12.93
2022-09-28T15:05:00.793Z,13.00
2022-09-28T15:07:32.800Z,12.94
2022-09-28T15:10:02.062Z,12.91
2022-09-28T15:12:30.726Z,12.92
2022-09-28T15:15:01.299Z,12.69
2022-09-28T15:17:32.821Z,12.75
2022-09-28T15:20:17.165Z,12.74
2022-09-28T15:22:48.753Z,12.81
2022-09-28T15:25:19.791Z,12.69
2022-09-28T15:27:52.551Z,12.68
2022-09-28T15:30:24.157Z,12.87
2022-09-28T15:32:51.836Z,12.72
2022-09-28T15:35:22.149Z,12.78
2022-09-28T15:37:51.992Z,12.84
2022-09-28T15:40:22.530Z,12.71
2022-09-28T15:42:50.262Z,12.76
2022-09-28T15:45:24.772Z,12.80
2022-09-28T15:47:58.355Z,12.84
2022-09-28T15:50:30.020Z,12.91
2022-09-28T15:53:00.685Z,12.95
2022-09-28T15:55:31.086Z,13.00
2022-09-28T15:58:15.755Z,13.06
2022-09-28T16:00:44.621Z,13.12
2022-09-28T16:03:29.507Z,13.17
2022-09-28T16:06:08.518Z,13.03
2022-09-28T16:08:41.166Z,13.05
2022-09-28T16:11:13.409Z,13.13
2022-09-28T16:13:56.043Z,13.11
2022-09-28T16:16:27.551Z,13.10
2022-09-28T16:18:55.417Z,12.99
2022-09-28T16:21:43.691Z,12.71
2022-09-28T16:24:21.041Z,12.68
2022-09-28T16:26:49.620Z,12.77
2022-09-28T16:29:26.541Z,12.78
2022-09-28T16:31:54.239Z,12.76
2022-09-28T16:34:25.615Z,12.76
2022-09-28T16:36:54.805Z,12.59
2022-09-28T16:39:22.393Z,12.53
2022-09-28T16:41:52.856Z,12.56
2022-09-28T16:44:25.817Z,12.57
2022-09-28T16:46:55.148Z,12.57
2022-09-28T16:49:25.234Z,12.51
2022-09-28T16:51:54.211Z,12.45
2022-09-28T16:54:40.866Z,12.39
2022-09-28T16:57:10.695Z,12.28
2022-09-28T16:59:38.752Z,12.29
2022-09-28T17:02:45.327Z,12.24
2022-09-28T17:05:10.084Z,12.21
2022-09-28T17:07:38.892Z,12.20
2022-09-28T17:10:15.149Z,12.17
2022-09-28T17:12:42.570Z,12.13
2022-09-28T17:15:10.570Z,11.91
2022-09-28T17:17:38.383Z,11.86
2022-09-28T17:20:16.737Z,11.86
2022-09-28T17:22:45.565Z,11.78
2022-09-28T17:25:13.408Z,11.77
2022-09-28T17:27:41.639Z,11.74
2022-09-28T17:30:11.665Z,11.73
2022-09-28T17:32:39.446Z,11.73
2022-09-28T17:35:23.675Z,11.72
2022-09-28T17:37:53.569Z,11.54
2022-09-28T17:40:24.955Z,11.58
2022-09-28T17:42:56.003Z,11.56
2022-09-28T17:45:28.501Z,11.52
2022-09-28T17:47:56.490Z,11.49
2022-09-28T17:50:26.131Z,11.40
2022-09-28T17:52:55.685Z,11.21
2022-09-28T17:55:24.670Z,11.20
2022-09-28T17:57:52.288Z,11.26
2022-09-28T18:00:20.141Z,11.27
2022-09-28T18:02:48.463Z,11.24
2022-09-28T18:05:16.309Z,11.25
2022-09-28T18:07:47.412Z,11.25
2022-09-28T18:10:18.220Z,11.27
2022-09-28T18:12:45.812Z,11.19
2022-09-28T18:15:13.358Z,11.09
2022-09-28T18:17:41.410Z,10.97
2022-09-28T18:20:11.031Z,10.92
2022-09-28T18:22:38.654Z,10.84
2022-09-28T18:25:07.767Z,10.78
2022-09-28T18:27:36.736Z,10.79
2022-09-28T18:30:05.209Z,10.93
2022-09-28T18:32:35.077Z,10.97
2022-09-28T18:35:02.655Z,10.77
2022-09-28T18:37:30.281Z,10.61
2022-09-28T18:39:58.008Z,10.65
2022-09-28T18:42:25.693Z,10.55
2022-09-28T18:44:54.690Z,10.60
2022-09-28T18:47:22.415Z,10.70
2022-09-28T18:49:50.917Z,10.72
2022-09-28T18:52:18.496Z,10.79
2022-09-28T18:54:46.712Z,10.97
2022-09-28T18:57:15.179Z,10.95
2022-09-28T18:59:42.765Z,10.96
2022-09-28T19:02:12.220Z,10.90
2022-09-28T19:04:40.257Z,10.90
2022-09-28T19:07:08.908Z,10.87
2022-09-28T19:09:36.535Z,10.90
2022-09-28T19:12:05.950Z,10.77
2022-09-28T19:14:33.543Z,10.72
2022-09-28T19:17:01.188Z,10.73
2022-09-28T19:19:30.390Z,10.76
2022-09-28T19:21:58.130Z,10.66
2022-09-28T19:24:26.233Z,10.75
2022-09-28T19:26:54.369Z,10.71
2022-09-28T19:29:22.044Z,10.78
2022-09-28T19:31:50.229Z,10.75
2022-09-28T19:34:18.424Z,10.63
2022-09-28T19:36:47.392Z,10.57
2022-09-28T19:39:15.719Z,10.57
2022-09-28T19:41:47.823Z,10.55
2022-09-28T19:44:24.309Z,10.50
2022-09-28T19:46:53.650Z,10.43
2022-09-28T19:49:22.489Z,10.46
2022-09-28T19:52:12.060Z,10.48
2022-09-28T19:54:41.149Z,10.36
2022-09-28T19:57:09.100Z,10.35
2022-09-28T19:59:37.002Z,10.38
2022-09-28T20:02:05.058Z,10.34
2022-09-28T20:04:32.653Z,10.25
2022-09-28T20:07:01.811Z,10.33
2022-09-28T20:09:29.555Z,10.40
2022-09-28T20:11:57.198Z,10.43
2022-09-28T20:14:28.158Z,10.49
2022-09-28T20:16:59.600Z,10.59
2022-09-28T20:19:27.261Z,10.62
2022-09-28T20:21:59.289Z,10.75
2022-09-28T20:24:28.970Z,10.71
2022-09-28T20:26:56.711Z,10.60
2022-09-28T20:29:24.858Z,10.57
2022-09-28T20:31:54.164Z,10.35
2022-09-28T20:34:21.724Z,10.40
2022-09-28T20:36:49.334Z,10.39
2022-09-28T20:39:17.088Z,10.20
2022-09-28T20:41:47.162Z,10.20
2022-09-28T20:44:14.893Z,10.19
2022-09-28T20:46:43.921Z,10.09
2022-09-28T20:49:11.806Z,10.03
2022-09-28T20:51:39.469Z,9.90
2022-09-28T20:54:07.194Z,9.72
2022-09-28T20:56:37.991Z,9.67
2022-09-28T20:59:08.090Z,9.93
2022-09-28T21:01:36.154Z,9.89
2022-09-28T21:04:06.005Z,9.79
2022-09-28T21:06:35.032Z,9.81
2022-09-28T21:09:02.666Z,10.04
2022-09-28T21:11:30.873Z,10.08
2022-09-28T21:14:00.048Z,10.11
2022-09-28T21:16:30.446Z,10.01
2022-09-28T21:18:58.551Z,9.98
2022-09-28T21:21:26.758Z,10.01
2022-09-28T21:23:54.731Z,9.95
2022-09-28T21:26:25.633Z,9.87
2022-09-28T21:28:53.490Z,10.12
2022-09-28T21:31:24.905Z,10.09
2022-09-28T21:33:57.654Z,10.12
2022-09-28T21:36:25.867Z,10.16
2022-09-28T21:38:54.182Z,10.22
2022-09-28T21:41:21.773Z,10.19
2022-09-28T21:43:49.408Z,10.08
2022-09-28T21:46:17.498Z,10.07
2022-09-28T21:48:45.260Z,9.97
2022-09-28T21:51:15.571Z,9.67
2022-09-28T21:53:43.771Z,9.69
2022-09-28T21:56:13.295Z,9.65
2022-09-28T21:58:41.305Z,9.79
2022-09-28T22:01:13.087Z,10.06
2022-09-28T22:03:40.868Z,9.93
2022-09-28T22:06:09.497Z,9.97
2022-09-28T22:08:38.494Z,9.88
2022-09-28T22:11:07.820Z,9.66
2022-09-28T22:13:37.080Z,9.48
2022-09-28T22:16:04.868Z,9.45
2022-09-28T22:18:33.953Z,9.27
2022-09-28T22:21:01.984Z,9.14
2022-09-28T22:23:29.855Z,9.15
2022-09-28T22:26:03.212Z,9.57
2022-09-28T22:28:30.703Z,9.87
2022-09-28T22:30:58.402Z,9.58
2022-09-28T22:33:26.394Z,9.58
2022-09-28T22:35:54.871Z,9.24
2022-09-28T22:38:24.189Z,9.12
2022-09-28T22:40:52.921Z,9.06
2022-09-28T22:43:22.588Z,8.93
2022-09-28T22:45:50.155Z,8.98
2022-09-28T22:48:18.131Z,8.99
2022-09-28T22:50:49.563Z,8.87
2022-09-28T22:53:17.014Z,8.81
2022-09-28T22:55:44.596Z,8.82
2022-09-28T22:58:12.627Z,8.67
2022-09-28T23:00:41.466Z,8.41
2022-09-28T23:03:08.966Z,8.25
2022-09-28T23:05:36.529Z,8.39
2022-09-28T23:08:04.483Z,8.42
2022-09-28T23:10:31.979Z,8.53
2022-09-28T23:12:59.582Z,8.53
2022-09-28T23:15:28.390Z,8.42
2022-09-28T23:17:57.165Z,8.33
2022-09-28T23:20:24.849Z,8.06
2022-09-28T23:22:52.369Z,7.88
2022-09-28T23:25:20.213Z,7.82
2022-09-28T23:27:47.969Z,7.66
2022-09-28T23:30:16.323Z,7.47
2022-09-28T23:32:43.882Z,7.44
2022-09-28T23:35:13.376Z,7.70
2022-09-28T23:37:41.029Z,7.75
2022-09-28T23:40:08.889Z,7.67
2022-09-28T23:42:36.340Z,7.53
2022-09-28T23:45:03.824Z,7.89
2022-09-28T23:47:31.272Z,7.97
2022-09-28T23:49:58.723Z,7.87
2022-09-28T23:52:27.523Z,7.89
2022-09-28T23:54:55.031Z,7.86
2022-09-28T23:57:22.480Z,7.76
2022-09-28T23:59:49.954Z,7.68
